createdAt,value
2022-10-24T00:01:47.250Z,5.72
2022-10-24T00:04:16.850Z,5.65
2022-10-24T00:06:45.100Z,4.60
2022-10-24T00:09:13.330Z,10.35
2022-10-24T00:11:43.953Z,4.65
2022-10-24T00:14:12.192Z,8.80
2022-10-24T00:16:40.914Z,5.65
2022-10-24T00:19:09.286Z,7.57
2022-10-24T00:21:39.112Z,6.97
2022-10-24T00:24:08.173Z,8.68
2022-10-24T00:26:37.176Z,5.97
2022-10-24T00:29:05.806Z,3.28
2022-10-24T00:31:33.976Z,7.38
2022-10-24T00:34:02.570Z,6.43
2022-10-24T00:36:30.909Z,10.05
2022-10-24T00:39:01.105Z,7.47
2022-10-24T00:41:31.995Z,6.50
2022-10-24T00:44:21.991Z,6.78
2022-10-24T00:46:54.001Z,4.72
2022-10-24T00:49:26.733Z,5.50
2022-10-24T00:51:59.861Z,5.40
2022-10-24T00:54:30.206Z,7.38
2022-10-24T00:57:08.971Z,5.50
2022-10-24T00:59:41.352Z,4.90
2022-10-24T01:02:09.838Z,7.65
2022-10-24T01:04:38.299Z,7.80
2022-10-24T01:07:34.287Z,7.68
2022-10-24T01:10:21.354Z,6.75
2022-10-24T01:12:59.887Z,6.95
2022-10-24T01:15:35.418Z,9.98
2022-10-24T01:18:10.124Z,9.02
2022-10-24T01:21:04.216Z,5.15
2022-10-24T01:24:09.443Z,9.85
2022-10-24T01:27:04.127Z,11.60
2022-10-24T01:29:49.166Z,5.22
2022-10-24T01:32:28.369Z,5.82
2022-10-24T01:35:03.643Z,8.20
2022-10-24T01:37:38.209Z,4.72
2022-10-24T01:40:11.908Z,6.40
2022-10-24T01:42:40.988Z,8.13
2022-10-24T01:45:15.112Z,6.50
2022-10-24T01:47:48.822Z,4.70
2022-10-24T01:50:19.414Z,5.93
2022-10-24T01:52:48.982Z,7.28
2022-10-24T01:55:17.304Z,4.55
2022-10-24T01:57:45.594Z,9.48
2022-10-24T02:00:19.587Z,10.48
2022-10-24T02:02:51.424Z,9.35
2022-10-24T02:05:25.202Z,6.30
2022-10-24T02:07:57.340Z,9.13
2022-10-24T02:10:29.474Z,9.43
2022-10-24T02:13:02.828Z,10.60
2022-10-24T02:15:36.340Z,11.75
2022-10-24T02:18:04.802Z,13.32
2022-10-24T02:20:37.245Z,8.05
2022-10-24T02:23:11.607Z,13.52
2022-10-24T02:28:21.584Z,8.77
2022-10-24T02:30:57.291Z,8.88
2022-10-24T02:33:27.693Z,9.52
2022-10-24T02:35:56.997Z,9.57
2022-10-24T02:38:29.744Z,14.25
2022-10-24T02:40:59.988Z,13.98
2022-10-24T02:43:30.150Z,8.63
2022-10-24T02:46:00.545Z,12.52
2022-10-24T02:48:33.523Z,13.63
2022-10-24T02:51:02.808Z,9.82
2022-10-24T02:53:30.977Z,12.27
2022-10-24T02:55:59.567Z,11.30
2022-10-24T02:58:27.657Z,10.52
2022-10-24T03:00:55.998Z,8.50
2022-10-24T03:03:25.490Z,11.25
2022-10-24T03:05:53.950Z,10.90
2022-10-24T03:08:22.339Z,9.20
2022-10-24T03:10:50.634Z,13.88
2022-10-24T03:13:18.860Z,8.82
2022-10-24T03:18:20.558Z,9.40
2022-10-24T03:20:50.153Z,9.75
2022-10-24T03:23:19.360Z,15.35
2022-10-24T03:25:47.665Z,11.05
2022-10-24T03:28:15.933Z,9.18
2022-10-24T03:30:44.351Z,7.85
2022-10-24T03:33:12.637Z,9.60
2022-10-24T03:35:41.289Z,8.93
2022-10-24T03:38:10.845Z,13.57
2022-10-24T03:40:39.562Z,10.75
2022-10-24T03:43:07.832Z,10.27
2022-10-24T03:45:37.553Z,10.48
2022-10-24T03:48:06.210Z,10.38
2022-10-24T03:50:35.111Z,9.68
2022-10-24T03:53:03.671Z,6.68
2022-10-24T03:55:33.657Z,12.32
2022-10-24T03:58:01.973Z,12.40
2022-10-24T04:00:30.295Z,8.18
2022-10-24T04:02:58.708Z,9.65
2022-10-24T04:05:26.995Z,11.00
2022-10-24T04:07:55.250Z,7.88
2022-10-24T04:10:23.500Z,10.70
2022-10-24T04:12:53.025Z,7.88
2022-10-24T04:15:21.739Z,8.98
2022-10-24T04:17:49.970Z,10.18
2022-10-24T04:20:20.497Z,11.73
2022-10-24T04:22:49.043Z,7.93
2022-10-24T04:25:18.541Z,10.05
2022-10-24T04:27:46.959Z,7.45
2022-10-24T04:30:17.058Z,9.15
2022-10-24T04:32:45.879Z,8.57
2022-10-24T04:35:14.939Z,7.78
2022-10-24T04:37:43.365Z,8.82
2022-10-24T04:40:12.313Z,9.23
2022-10-24T04:42:40.664Z,9.23
2022-10-24T04:45:10.308Z,6.90
2022-10-24T04:47:39.926Z,10.05
2022-10-24T04:50:09.102Z,10.50
2022-10-24T04:52:37.490Z,11.48
2022-10-24T04:55:06.670Z,11.80
2022-10-24T04:57:35.184Z,8.30
2022-10-24T05:00:03.749Z,7.30
2022-10-24T05:02:32.034Z,9.38
2022-10-24T05:05:01.806Z,5.10
2022-10-24T05:07:30.032Z,6.95
2022-10-24T05:09:58.344Z,4.18
2022-10-24T05:12:26.904Z,6.43
2022-10-24T05:14:55.004Z,5.82
2022-10-24T05:17:23.314Z,7.43
2022-10-24T05:19:51.633Z,7.10
2022-10-24T05:22:21.536Z,5.15
2022-10-24T05:24:49.949Z,9.60
2022-10-24T05:27:21.770Z,6.60
2022-10-24T05:29:50.026Z,6.13
2022-10-24T05:32:18.279Z,5.72
2022-10-24T05:34:46.564Z,6.63
2022-10-24T05:37:15.428Z,4.15
2022-10-24T05:39:45.131Z,7.18
2022-10-24T05:42:13.469Z,5.65
2022-10-24T05:44:41.709Z,8.02
2022-10-24T05:47:10.470Z,4.75
2022-10-24T05:49:38.884Z,5.30
2022-10-24T05:52:07.510Z,8.93
2022-10-24T05:54:48.462Z,4.47
2022-10-24T05:57:25.451Z,3.80
2022-10-24T05:59:53.822Z,3.65
2022-10-24T06:02:22.384Z,5.70
2022-10-24T06:04:51.200Z,6.82
2022-10-24T06:07:19.880Z,5.80
2022-10-24T06:09:48.535Z,9.10
2022-10-24T06:12:16.820Z,5.70
2022-10-24T06:14:46.506Z,8.30
2022-10-24T06:17:14.987Z,4.88
2022-10-24T06:19:43.927Z,9.77
2022-10-24T06:22:12.718Z,8.65
2022-10-24T06:24:41.044Z,7.20
2022-10-24T06:27:09.700Z,7.75
2022-10-24T06:29:38.108Z,6.85
2022-10-24T06:32:07.592Z,6.10
2022-10-24T06:34:36.143Z,6.65
2022-10-24T06:37:04.715Z,6.72
2022-10-24T06:39:33.154Z,9.15
2022-10-24T06:42:02.644Z,11.98
2022-10-24T06:44:31.004Z,6.95
2022-10-24T06:46:59.346Z,7.93
2022-10-24T06:49:29.153Z,10.00
2022-10-24T06:51:57.571Z,7.22
2022-10-24T06:54:29.263Z,7.25
2022-10-24T06:56:59.065Z,9.07
2022-10-24T06:59:27.824Z,9.60
2022-10-24T07:01:56.330Z,7.22
2022-10-24T07:04:26.551Z,9.85
2022-10-24T07:06:56.222Z,9.10
2022-10-24T07:09:24.629Z,9.15
2022-10-24T07:11:53.005Z,10.73
2022-10-24T07:14:21.304Z,13.18
2022-10-24T07:16:49.605Z,15.27
2022-10-24T07:19:17.978Z,13.60
2022-10-24T07:21:46.290Z,15.38
2022-10-24T07:24:15.910Z,10.55
2022-10-24T07:26:44.250Z,10.75
2022-10-24T07:29:12.626Z,11.13
2022-10-24T07:31:41.043Z,8.18
2022-10-24T07:34:10.712Z,15.93
2022-10-24T07:36:41.523Z,13.48
2022-10-24T07:39:12.045Z,11.63
2022-10-24T07:41:42.307Z,9.43
2022-10-24T07:44:11.456Z,13.68
2022-10-24T07:46:41.577Z,10.10
2022-10-24T07:49:10.179Z,12.32
2022-10-24T07:51:38.552Z,8.20
2022-10-24T07:54:06.897Z,7.25
2022-10-24T07:56:35.122Z,9.32
2022-10-24T07:59:09.694Z,8.85
2022-10-24T08:01:42.425Z,12.02
2022-10-24T08:04:11.340Z,9.05
2022-10-24T08:06:40.736Z,9.65
2022-10-24T08:09:08.994Z,10.52
2022-10-24T08:11:37.509Z,9.32
2022-10-24T08:14:06.938Z,10.50
2022-10-24T08:16:35.380Z,10.75
2022-10-24T08:19:03.737Z,8.43
2022-10-24T08:21:33.504Z,8.38
2022-10-24T08:24:01.818Z,10.55
2022-10-24T08:26:30.530Z,13.90
2022-10-24T08:28:58.857Z,11.02
2022-10-24T08:31:28.526Z,11.38
2022-10-24T08:33:57.367Z,6.00
2022-10-24T08:36:27.639Z,25.88
2022-10-24T08:38:55.998Z,9.57
2022-10-24T08:41:30.391Z,8.80
2022-10-24T08:44:01.595Z,8.90
2022-10-24T08:46:41.481Z,7.30
2022-10-24T08:49:19.148Z,3.30
2022-10-24T08:51:49.492Z,8.90
2022-10-24T08:54:22.698Z,8.35
2022-10-24T08:56:52.839Z,5.28
2022-10-24T08:59:21.369Z,7.05
2022-10-24T09:01:53.993Z,7.72
2022-10-24T09:04:25.876Z,8.68
2022-10-24T09:06:56.101Z,5.57
2022-10-24T09:09:31.479Z,7.50
2022-10-24T09:12:02.210Z,6.50
2022-10-24T09:14:32.049Z,7.57
2022-10-24T09:17:04.161Z,7.07
2022-10-24T09:19:33.151Z,9.20
2022-10-24T09:22:02.308Z,4.90
2022-10-24T09:24:38.516Z,7.97
2022-10-24T09:27:12.227Z,5.55
2022-10-24T09:29:40.521Z,5.65
2022-10-24T09:32:17.137Z,7.28
2022-10-24T09:34:45.816Z,6.38
2022-10-24T09:37:42.737Z,6.85
2022-10-24T09:40:22.863Z,9.13
2022-10-24T09:43:01.078Z,5.47
2022-10-24T09:45:47.823Z,6.13
2022-10-24T09:48:29.239Z,4.40
2022-10-24T09:51:00.153Z,11.02
2022-10-24T09:53:30.368Z,8.57
2022-10-24T09:56:01.327Z,8.85
2022-10-24T09:58:33.747Z,6.35
2022-10-24T10:01:05.519Z,10.07
2022-10-24T10:03:36.281Z,12.30
2022-10-24T10:06:15.324Z,8.57
2022-10-24T10:08:50.058Z,14.23
2022-10-24T10:11:26.639Z,9.63
2022-10-24T10:13:55.748Z,6.30
2022-10-24T10:16:26.582Z,11.55
2022-10-24T10:19:04.144Z,14.60
2022-10-24T10:21:54.373Z,9.00
2022-10-24T10:24:27.421Z,9.40
2022-10-24T10:26:55.929Z,11.50
2022-10-24T10:29:25.555Z,9.95
2022-10-24T10:32:00.567Z,8.57
2022-10-24T10:34:39.056Z,12.65
2022-10-24T10:37:33.516Z,9.57
2022-10-24T10:40:16.722Z,14.57
2022-10-24T10:42:57.279Z,9.00
2022-10-24T10:45:36.790Z,9.93
2022-10-24T10:48:29.227Z,9.15
2022-10-24T10:51:08.110Z,9.95
2022-10-24T10:53:41.033Z,12.32
2022-10-24T10:56:23.168Z,10.90
2022-10-24T10:59:01.638Z,11.10
2022-10-24T11:01:43.804Z,12.20
2022-10-24T11:04:22.197Z,9.15
2022-10-24T11:09:38.111Z,9.77
2022-10-24T11:12:13.391Z,8.20
2022-10-24T11:14:44.299Z,9.05
2022-10-24T11:17:17.726Z,8.07
2022-10-24T11:19:55.578Z,10.00
2022-10-24T11:22:30.254Z,15.10
2022-10-24T11:25:04.338Z,13.18
2022-10-24T11:27:40.538Z,16.05
2022-10-24T11:30:16.516Z,10.90
2022-10-24T11:32:50.609Z,8.27
2022-10-24T11:35:28.090Z,11.23
2022-10-24T11:38:00.586Z,10.82
2022-10-24T11:40:31.351Z,15.52
2022-10-24T11:43:07.850Z,12.07
2022-10-24T11:45:47.119Z,14.18
2022-10-24T11:48:20.373Z,18.10
2022-10-24T11:50:54.025Z,14.32
2022-10-24T11:53:45.878Z,15.45
2022-10-24T11:56:18.148Z,21.95
2022-10-24T11:58:53.978Z,16.65
2022-10-24T12:01:45.575Z,18.63
2022-10-24T12:04:44.008Z,21.05
2022-10-24T12:07:33.274Z,16.98
2022-10-24T12:10:23.080Z,15.23
2022-10-24T12:13:16.434Z,11.52
2022-10-24T12:15:51.251Z,11.23
2022-10-24T12:18:30.210Z,11.68
2022-10-24T12:21:02.637Z,16.55
2022-10-24T12:23:31.688Z,14.07
2022-10-24T12:26:10.387Z,12.65
2022-10-24T12:28:39.424Z,18.70
2022-10-24T12:31:14.043Z,13.90
2022-10-24T12:33:43.051Z,21.77
2022-10-24T12:36:12.052Z,18.95
2022-10-24T12:39:09.266Z,20.02
2022-10-24T12:41:43.547Z,24.20
2022-10-24T12:44:38.269Z,20.42
2022-10-24T12:47:31.705Z,23.38
2022-10-24T12:50:00.949Z,31.00
2022-10-24T12:52:52.198Z,25.50
2022-10-24T12:56:10.199Z,31.65
2022-10-24T12:58:42.675Z,18.42
2022-10-24T13:01:24.047Z,24.48
2022-10-24T13:04:19.333Z,29.73
2022-10-24T13:07:04.142Z,23.77
2022-10-24T13:09:39.840Z,23.88
2022-10-24T13:12:22.429Z,20.27
2022-10-24T13:15:17.199Z,24.02
2022-10-24T13:17:52.324Z,18.65
2022-10-24T13:20:24.393Z,24.98
2022-10-24T13:23:01.631Z,16.60
2022-10-24T13:25:34.562Z,20.33
2022-10-24T13:28:35.963Z,20.30
2022-10-24T13:31:43.744Z,22.08
2022-10-24T13:34:27.717Z,17.67
2022-10-24T13:37:02.425Z,14.60
2022-10-24T13:39:37.503Z,14.38
2022-10-24T13:42:09.716Z,17.42
2022-10-24T13:44:46.280Z,17.30
2022-10-24T13:47:21.495Z,16.92
2022-10-24T13:49:54.095Z,14.30
2022-10-24T13:52:27.009Z,13.50
2022-10-24T13:55:00.879Z,15.68
2022-10-24T13:57:33.753Z,17.80
2022-10-24T14:00:03.557Z,13.43
2022-10-24T14:02:39.573Z,13.77
2022-10-24T14:05:08.578Z,15.55
2022-10-24T14:07:36.858Z,12.25
2022-10-24T14:10:12.177Z,15.55
2022-10-24T14:12:41.326Z,14.73
2022-10-24T14:15:18.553Z,15.52
2022-10-24T14:17:57.430Z,12.80
2022-10-24T14:20:28.033Z,10.63
2022-10-24T14:22:56.448Z,13.73
2022-10-24T14:25:27.228Z,13.73
2022-10-24T14:27:57.152Z,9.75
2022-10-24T14:30:30.529Z,12.43
2022-10-24T14:33:24.341Z,10.77
2022-10-24T14:35:56.684Z,10.15
2022-10-24T14:38:27.626Z,12.77
2022-10-24T14:41:08.304Z,11.45
2022-10-24T14:43:41.900Z,12.77
2022-10-24T14:46:39.232Z,12.43
2022-10-24T14:49:33.279Z,12.95
2022-10-24T14:52:09.359Z,11.00
2022-10-24T14:54:37.927Z,13.40
2022-10-24T14:57:16.797Z,10.07
2022-10-24T14:59:46.695Z,11.60
2022-10-24T15:02:21.784Z,9.80
2022-10-24T15:04:52.814Z,10.18
2022-10-24T15:07:32.342Z,11.07
2022-10-24T15:10:01.465Z,14.43
2022-10-24T15:12:35.090Z,10.93
2022-10-24T15:15:24.823Z,11.63
2022-10-24T15:17:54.111Z,9.60
2022-10-24T15:20:27.421Z,10.95
2022-10-24T15:22:58.254Z,10.75
2022-10-24T15:25:30.398Z,12.52
2022-10-24T15:28:00.320Z,13.40
2022-10-24T15:30:30.175Z,14.98
2022-10-24T15:33:00.012Z,13.40
2022-10-24T15:35:30.778Z,16.77
2022-10-24T15:38:00.399Z,14.20
2022-10-24T15:40:31.281Z,14.38
2022-10-24T15:42:59.657Z,12.25
2022-10-24T15:45:28.245Z,13.13
2022-10-24T15:47:56.539Z,14.50
2022-10-24T15:50:25.431Z,13.00
2022-10-24T15:52:57.040Z,19.17
2022-10-24T15:55:28.594Z,15.00
2022-10-24T15:57:59.748Z,13.68
2022-10-24T16:00:28.194Z,8.50
2022-10-24T16:03:00.839Z,11.18
2022-10-24T16:05:37.222Z,13.27
2022-10-24T16:08:07.564Z,14.32
2022-10-24T16:10:35.696Z,13.32
2022-10-24T16:13:03.921Z,11.82
2022-10-24T16:15:36.680Z,16.15
2022-10-24T16:18:05.632Z,9.82
2022-10-24T16:20:34.111Z,9.80
2022-10-24T16:23:02.434Z,11.20
2022-10-24T16:25:34.286Z,11.30
2022-10-24T16:28:10.854Z,8.77
2022-10-24T16:30:40.853Z,8.27
2022-10-24T16:33:09.335Z,8.90
2022-10-24T16:35:39.179Z,9.23
2022-10-24T16:38:09.130Z,8.00
2022-10-24T16:43:12.626Z,7.10
2022-10-24T16:45:41.169Z,5.63
2022-10-24T16:48:09.637Z,3.40
2022-10-24T16:50:41.100Z,4.50
2022-10-24T16:53:10.222Z,7.45
2022-10-24T16:55:39.174Z,3.53
2022-10-24T16:58:07.536Z,7.43
2022-10-24T17:00:37.279Z,3.30
2022-10-24T17:03:05.567Z,4.70
2022-10-24T17:05:33.866Z,4.78
2022-10-24T17:08:02.092Z,17.38
2022-10-24T17:10:30.489Z,17.83
2022-10-24T17:13:00.959Z,15.52
2022-10-24T17:15:29.281Z,5.00
2022-10-24T17:17:58.817Z,6.40
2022-10-24T17:20:27.130Z,3.80
2022-10-24T17:22:55.614Z,5.07
2022-10-24T17:25:26.800Z,6.50
2022-10-24T17:27:55.894Z,6.30
2022-10-24T17:30:26.416Z,6.47
2022-10-24T17:32:55.041Z,14.65
2022-10-24T17:35:26.886Z,22.25
2022-10-24T17:38:06.811Z,19.35
2022-10-24T17:40:43.090Z,17.38
2022-10-24T17:43:20.407Z,23.23
2022-10-24T17:45:50.008Z,9.27
2022-10-24T17:48:18.542Z,4.60
2022-10-24T17:50:48.196Z,9.80
2022-10-24T17:53:18.082Z,5.75
2022-10-24T17:55:47.971Z,4.25
2022-10-24T17:58:16.950Z,8.80
2022-10-24T18:00:45.537Z,29.08
2022-10-24T18:03:14.201Z,30.38
2022-10-24T18:05:42.579Z,22.42
2022-10-24T18:08:16.365Z,24.48
2022-10-24T18:10:44.634Z,16.88
2022-10-24T18:13:13.021Z,9.77
2022-10-24T18:15:41.456Z,12.23
2022-10-24T18:18:09.769Z,8.52
2022-10-24T18:20:38.157Z,9.18
2022-10-24T18:23:06.418Z,8.27
2022-10-24T18:25:37.454Z,6.20
2022-10-24T18:28:06.532Z,7.43
2022-10-24T18:30:35.371Z,8.00
2022-10-24T18:33:04.212Z,5.82
2022-10-24T18:35:34.099Z,9.05
2022-10-24T18:38:02.675Z,7.18
2022-10-24T18:40:33.424Z,7.90
2022-10-24T18:43:05.883Z,10.85
2022-10-24T18:45:35.013Z,9.73
2022-10-24T18:48:04.726Z,10.00
2022-10-24T18:50:33.200Z,9.57
2022-10-24T18:53:05.776Z,10.57
2022-10-24T18:55:35.727Z,14.73
2022-10-24T18:58:06.097Z,10.60
2022-10-24T19:00:38.045Z,7.45
2022-10-24T19:03:17.939Z,13.02
2022-10-24T19:05:53.791Z,9.88
2022-10-24T19:08:26.670Z,12.13
2022-10-24T19:10:56.756Z,12.35
2022-10-24T19:13:28.417Z,7.85
2022-10-24T19:16:00.146Z,6.22
2022-10-24T19:18:29.813Z,14.18
2022-10-24T19:20:58.094Z,9.38
2022-10-24T19:23:26.395Z,9.48
2022-10-24T19:25:54.964Z,7.55
2022-10-24T19:28:23.834Z,10.32
2022-10-24T19:30:54.029Z,9.98
2022-10-24T19:33:25.058Z,11.10
2022-10-24T19:35:53.607Z,9.50
2022-10-24T19:38:21.998Z,9.00
2022-10-24T19:40:52.071Z,8.30
2022-10-24T19:43:20.559Z,8.27
2022-10-24T19:46:06.738Z,12.65
2022-10-24T19:48:37.927Z,8.27
2022-10-24T19:51:07.510Z,12.43
2022-10-24T19:53:36.791Z,9.13
2022-10-24T19:56:06.098Z,11.75
2022-10-24T19:58:34.404Z,11.63
2022-10-24T20:01:07.152Z,8.20
2022-10-24T20:03:38.128Z,14.48
2022-10-24T20:06:06.711Z,11.38
2022-10-24T20:08:35.083Z,10.18
2022-10-24T20:11:03.963Z,11.75
2022-10-24T20:13:32.304Z,17.10
2022-10-24T20:16:02.532Z,18.67
2022-10-24T20:18:31.991Z,16.65
2022-10-24T20:21:04.010Z,12.77
2022-10-24T20:23:32.575Z,12.68
2022-10-24T20:26:02.975Z,10.38
2022-10-24T20:28:34.161Z,12.25
2022-10-24T20:31:02.851Z,13.50
2022-10-24T20:33:31.101Z,14.70
2022-10-24T20:36:01.927Z,11.15
2022-10-24T20:38:30.346Z,15.20
2022-10-24T20:41:02.901Z,9.38
2022-10-24T20:43:31.436Z,14.15
2022-10-24T20:46:00.156Z,14.07
2022-10-24T20:48:28.516Z,13.30
2022-10-24T20:51:04.070Z,12.32
2022-10-24T20:53:33.982Z,15.32
2022-10-24T20:56:06.669Z,12.27
2022-10-24T20:58:36.697Z,15.82
2022-10-24T21:01:08.051Z,13.60
2022-10-24T21:03:37.627Z,11.95
2022-10-24T21:06:07.881Z,15.35
2022-10-24T21:08:37.550Z,10.63
2022-10-24T21:11:07.304Z,12.98
2022-10-24T21:13:35.601Z,8.55
2022-10-24T21:16:04.108Z,10.23
2022-10-24T21:18:32.488Z,10.05
2022-10-24T21:21:06.137Z,14.07
2022-10-24T21:23:34.378Z,12.48
2022-10-24T21:26:05.725Z,17.60
2022-10-24T21:28:33.830Z,10.27
2022-10-24T21:31:05.574Z,17.85
2022-10-24T21:33:34.403Z,9.38
2022-10-24T21:36:07.012Z,11.85
2022-10-24T21:38:35.573Z,15.35
2022-10-24T21:41:07.072Z,11.77
2022-10-24T21:43:36.213Z,14.32
2022-10-24T21:46:06.993Z,12.48
2022-10-24T21:48:35.881Z,16.45
2022-10-24T21:51:05.907Z,13.90
2022-10-24T21:53:37.817Z,13.35
2022-10-24T21:56:09.628Z,14.00
2022-10-24T21:58:38.224Z,13.32
2022-10-24T22:01:11.782Z,12.27
2022-10-24T22:03:40.305Z,10.80
2022-10-24T22:06:10.225Z,16.63
2022-10-24T22:08:38.456Z,13.90
2022-10-24T22:11:12.525Z,18.52
2022-10-24T22:13:41.461Z,15.27
2022-10-24T22:16:11.666Z,20.95
2022-10-24T22:18:40.610Z,13.77
2022-10-24T22:21:10.534Z,15.70
2022-10-24T22:23:38.780Z,25.25
2022-10-24T22:26:08.568Z,15.60
2022-10-24T22:28:37.152Z,16.67
2022-10-24T22:31:05.736Z,18.25
2022-10-24T22:33:36.663Z,18.90
2022-10-24T22:36:08.711Z,19.90
2022-10-24T22:38:37.313Z,26.75
2022-10-24T22:41:09.953Z,18.83
2022-10-24T22:43:38.719Z,19.33
2022-10-24T22:46:17.488Z,24.95
2022-10-24T22:48:49.937Z,23.33
2022-10-24T22:51:21.113Z,25.80
2022-10-24T22:53:49.626Z,17.15
2022-10-24T22:56:23.190Z,25.05
2022-10-24T22:58:51.587Z,17.00
2022-10-24T23:01:38.743Z,16.70
2022-10-24T23:04:20.874Z,19.77
2022-10-24T23:06:54.948Z,25.60
2022-10-24T23:09:23.267Z,20.42
2022-10-24T23:11:53.468Z,16.08
2022-10-24T23:14:22.036Z,20.55
2022-10-24T23:16:56.633Z,21.75
2022-10-24T23:19:26.965Z,14.25
2022-10-24T23:21:58.576Z,21.75
2022-10-24T23:24:28.496Z,21.23
2022-10-24T23:27:26.490Z,16.23
2022-10-24T23:29:55.256Z,10.88
2022-10-24T23:32:25.421Z,21.00
2022-10-24T23:34:55.090Z,13.38
2022-10-24T23:37:32.709Z,13.07
2022-10-24T23:40:02.012Z,19.73
2022-10-24T23:42:32.066Z,18.90
2022-10-24T23:45:01.082Z,19.00
2022-10-24T23:47:57.548Z,21.13
2022-10-24T23:50:32.304Z,23.42
2022-10-24T23:53:12.500Z,12.68
2022-10-24T23:55:41.082Z,13.98
2022-10-24T23:58:13.086Z,16.33
